Leesport, Pennsylvania
Current Conditions -  °F | °C
As of 10:31 PM on Monday 22 Dec 2014 (Local Time) from KRDG Reporting Station
Light Rain Light Rain  
Wind Chill: 33°   Ceiling: 900
Heat Index: 37°   Visibility: 2mi
Dew Point: 36°   Wind: 5mph
Humidity: 96%   Direction: 10°N
Pressure: 30.13"   Gusts: NA
Location:  40.45°N, 75.97°W
Report Text: KRDG 230331Z 01004KT 2SM -RA BR OVC009 03/02 A3013 RMK AO2 SFC VIS 3 RAB05 P0000 T00280022
Loading
Personal Weather Stations






























Interactive Weather Map New forecast layout! Learn more

10-Day Weather Forecast

Advertisements
Track Severe Weather on mobile